Hilford, Kansas
Current Conditions -  °F | °C
As of 7:52 PM on Thursday 18 Dec 2014 (Local Time) from KPPF Reporting Station
Overcast Overcast  
Wind Chill: 36°   Ceiling: 700
Heat Index: 36°   Visibility: 8mi
Dew Point: 34°   Wind: 3mph
Humidity: 93%   Direction: 10°N
Pressure: 30.24"   Gusts: NA
Location:  37.428°N, 95.6341°W
Report Text: KPPF 190152Z AUTO 01003KT 8SM OVC007 02/01 A3024 RMK AO2 SLP245 T00220011
Loading
Personal Weather Stations






























Interactive Weather Map New forecast layout! Learn more

10-Day Weather Forecast

Advertisements
Track Severe Weather on mobile